BEL9AJ LGKR-EBBR
Flight info
| Callsign | BEL9AJ |
|---|---|
| Flight time | N/A |
| Altitude | 38000 |
| Route | OLGAT DCT CRAYE DCT GISAM DCT RILIM DCT UMSON DCT SAL DCT PUL DCT PEVAL DCT MOBDO DCT SOTOV DCT KPT L608 TEDGO DCT IDOVI Z104 GESLO N852 LNO |
| Aircraft | A20N/M-DE3FGHIJ1LORVWY/HB1G1 |
Departure
| Time | 2026-04-30 14:14 |
|---|---|
| Airport | Corfu Ioannis Kapodistrias International Airport (LGKR) |
Arrival
| Time | N/A |
|---|---|
| Airport | Brussels Airport (EBBR) |
| Time | Latitude | Longitude | Altitude | Speed | Heading |
|---|---|---|---|---|---|
| 2026-04-30 13:59 | 39.60838 | 19.91316 | 7 ft | 0 kts | 78° |
| 2026-04-30 14:03 | 39.60838 | 19.91314 | 7 ft | 1 kts | 79° |
| 2026-04-30 14:04 | 39.60835 | 19.91295 | 6 ft | 2 kts | 78° |
| 2026-04-30 14:04 | 39.60833 | 19.91275 | 4 ft | 2 kts | 99° |
| 2026-04-30 14:04 | 39.60838 | 19.91256 | 4 ft | 2 kts | 120° |
| 2026-04-30 14:04 | 39.60847 | 19.91241 | 4 ft | 2 kts | 143° |
| 2026-04-30 14:05 | 39.60860 | 19.91232 | 4 ft | 1 kts | 165° |
| 2026-04-30 14:05 | 39.60867 | 19.91231 | 4 ft | 1 kts | 171° |
| 2026-04-30 14:05 | 39.60868 | 19.91231 | 4 ft | 0 kts | 169° |
| 2026-04-30 14:09 | 39.60861 | 19.91232 | 4 ft | 2 kts | 170° |
| 2026-04-30 14:09 | 39.60831 | 19.91239 | 3 ft | 6 kts | 169° |
| 2026-04-30 14:09 | 39.60695 | 19.91269 | 2 ft | 13 kts | 188° |
| 2026-04-30 14:10 | 39.60598 | 19.91214 | 0 ft | 17 kts | 218° |
| 2026-04-30 14:10 | 39.60486 | 19.91155 | 0 ft | 18 kts | 186° |
| 2026-04-30 14:10 | 39.60350 | 19.91174 | 0 ft | 20 kts | 170° |
| 2026-04-30 14:10 | 39.60206 | 19.91213 | 0 ft | 21 kts | 169° |
| 2026-04-30 14:11 | 39.60060 | 19.91250 | 3 ft | 21 kts | 169° |
| 2026-04-30 14:11 | 39.59912 | 19.91287 | 5 ft | 21 kts | 168° |
| 2026-04-30 14:11 | 39.59765 | 19.91326 | 6 ft | 21 kts | 168° |
| 2026-04-30 14:11 | 39.59620 | 19.91363 | 6 ft | 20 kts | 169° |
| 2026-04-30 14:12 | 39.59476 | 19.91399 | 5 ft | 21 kts | 169° |
| 2026-04-30 14:12 | 39.59330 | 19.91438 | 3 ft | 21 kts | 169° |
| 2026-04-30 14:12 | 39.59211 | 19.91478 | 2 ft | 9 kts | 136° |
| 2026-04-30 14:12 | 39.59180 | 19.91516 | 2 ft | 6 kts | 163° |
| 2026-04-30 14:13 | 39.59159 | 19.91481 | 3 ft | 6 kts | 313° |
| 2026-04-30 14:13 | 39.59215 | 19.91466 | 2 ft | 19 kts | 350° |
| 2026-04-30 14:13 | 39.59601 | 19.91365 | 6 ft | 90 kts | 349° |
| 2026-04-30 14:13 | 39.60428 | 19.91156 | 0 ft | 148 kts | 348° |
| 2026-04-30 14:14 | 39.61521 | 19.90872 | 321 ft | 165 kts | 349° |
| 2026-04-30 14:14 | 39.62656 | 19.90587 | 931 ft | 167 kts | 348° |
| 2026-04-30 14:14 | 39.63778 | 19.90287 | 1575 ft | 169 kts | 347° |
| 2026-04-30 14:14 | 39.64845 | 19.89673 | 2065 ft | 175 kts | 313° |
| 2026-04-30 14:15 | 39.65346 | 19.88204 | 2457 ft | 188 kts | 273° |
| 2026-04-30 14:15 | 39.65283 | 19.86466 | 2882 ft | 203 kts | 268° |
| 2026-04-30 14:15 | 39.65205 | 19.84536 | 3226 ft | 225 kts | 269° |
| 2026-04-30 14:15 | 39.65147 | 19.82486 | 3960 ft | 229 kts | 270° |
| 2026-04-30 14:16 | 39.65314 | 19.80446 | 4600 ft | 236 kts | 292° |
| 2026-04-30 14:16 | 39.66239 | 19.78634 | 5132 ft | 250 kts | 313° |
| 2026-04-30 14:16 | 39.67490 | 19.77036 | 5811 ft | 259 kts | 315° |
| 2026-04-30 14:16 | 39.68799 | 19.75409 | 6652 ft | 262 kts | 315° |
| 2026-04-30 14:17 | 39.70084 | 19.73766 | 7510 ft | 264 kts | 314° |
| 2026-04-30 14:17 | 39.71361 | 19.72086 | 8368 ft | 265 kts | 313° |
| 2026-04-30 14:17 | 39.72648 | 19.70363 | 9221 ft | 267 kts | 313° |
| 2026-04-30 14:17 | 39.73927 | 19.68632 | 10039 ft | 269 kts | 312° |
| 2026-04-30 14:18 | 39.75204 | 19.66891 | 10697 ft | 276 kts | 311° |
| 2026-04-30 14:18 | 39.76567 | 19.65022 | 11088 ft | 293 kts | 311° |
| 2026-04-30 14:18 | 39.79535 | 19.60943 | 11954 ft | 321 kts | 311° |
| 2026-04-30 14:19 | 39.82610 | 19.56718 | 13423 ft | 327 kts | 310° |
| 2026-04-30 14:19 | 39.84181 | 19.54554 | 14126 ft | 330 kts | 310° |
| 2026-04-30 14:19 | 39.85775 | 19.52366 | 14816 ft | 333 kts | 310° |
| 2026-04-30 14:20 | 39.87385 | 19.50206 | 15521 ft | 335 kts | 311° |
| 2026-04-30 14:20 | 39.89019 | 19.48027 | 16198 ft | 337 kts | 311° |
| 2026-04-30 14:20 | 39.92281 | 19.43659 | 17484 ft | 342 kts | 311° |
| 2026-04-30 14:21 | 39.93960 | 19.41407 | 18103 ft | 345 kts | 311° |
| 2026-04-30 14:21 | 39.95610 | 19.39190 | 18720 ft | 347 kts | 311° |
| 2026-04-30 14:21 | 39.98988 | 19.34643 | 19905 ft | 352 kts | 310° |
| 2026-04-30 14:22 | 40.00689 | 19.32338 | 20497 ft | 354 kts | 310° |
| 2026-04-30 14:22 | 40.04126 | 19.27676 | 21577 ft | 361 kts | 310° |
| 2026-04-30 14:22 | 40.05858 | 19.25331 | 22108 ft | 364 kts | 310° |
| 2026-04-30 14:23 | 40.09389 | 19.20547 | 23137 ft | 369 kts | 310° |
| 2026-04-30 14:23 | 40.12984 | 19.15694 | 24119 ft | 375 kts | 310° |
| 2026-04-30 14:24 | 40.16634 | 19.10759 | 25094 ft | 379 kts | 310° |
| 2026-04-30 14:24 | 40.18487 | 19.08238 | 25559 ft | 382 kts | 310° |
| 2026-04-30 14:25 | 40.22197 | 19.03220 | 26451 ft | 387 kts | 312° |
| 2026-04-30 14:25 | 40.26466 | 18.98879 | 27255 ft | 397 kts | 323° |
| 2026-04-30 14:26 | 40.31401 | 18.95372 | 28026 ft | 404 kts | 327° |
| 2026-04-30 14:26 | 40.33897 | 18.93683 | 28405 ft | 406 kts | 327° |
| 2026-04-30 14:26 | 40.38917 | 18.90284 | 29141 ft | 409 kts | 327° |
| 2026-04-30 14:27 | 40.41435 | 18.88571 | 29473 ft | 411 kts | 328° |
| 2026-04-30 14:27 | 40.44001 | 18.86826 | 29827 ft | 412 kts | 327° |
| 2026-04-30 14:27 | 40.46521 | 18.85110 | 30276 ft | 411 kts | 327° |
| 2026-04-30 14:28 | 40.51583 | 18.81658 | 31223 ft | 406 kts | 327° |
| 2026-04-30 14:28 | 40.54071 | 18.79957 | 31633 ft | 405 kts | 327° |
| 2026-04-30 14:28 | 40.56553 | 18.78261 | 32008 ft | 404 kts | 327° |
| 2026-04-30 14:28 | 40.59059 | 18.76544 | 32407 ft | 402 kts | 327° |
| 2026-04-30 14:29 | 40.64013 | 18.73144 | 33158 ft | 399 kts | 327° |
| 2026-04-30 14:29 | 40.68941 | 18.69755 | 33802 ft | 398 kts | 327° |
| 2026-04-30 14:30 | 40.76260 | 18.64714 | 34676 ft | 395 kts | 327° |
| 2026-04-30 14:31 | 40.81107 | 18.61366 | 35139 ft | 393 kts | 327° |
| 2026-04-30 14:31 | 40.85916 | 18.58041 | 35564 ft | 392 kts | 327° |
| 2026-04-30 14:31 | 40.88340 | 18.56362 | 35772 ft | 391 kts | 327° |
| 2026-04-30 14:32 | 40.93144 | 18.53034 | 36146 ft | 389 kts | 327° |
| 2026-04-30 14:32 | 40.95533 | 18.51375 | 36305 ft | 389 kts | 327° |
| 2026-04-30 14:32 | 40.97915 | 18.49720 | 36502 ft | 389 kts | 327° |
| 2026-04-30 14:33 | 41.00303 | 18.48061 | 36718 ft | 388 kts | 327° |
| 2026-04-30 14:33 | 41.05089 | 18.44729 | 37152 ft | 387 kts | 327° |
| 2026-04-30 14:33 | 41.07444 | 18.43088 | 37347 ft | 386 kts | 327° |
| 2026-04-30 14:34 | 41.09842 | 18.41416 | 37513 ft | 385 kts | 327° |
| 2026-04-30 14:34 | 41.12210 | 18.39769 | 37664 ft | 385 kts | 327° |
| 2026-04-30 14:34 | 41.14573 | 18.38130 | 37774 ft | 386 kts | 327° |
| 2026-04-30 14:34 | 41.16988 | 18.36449 | 37912 ft | 386 kts | 327° |
| 2026-04-30 14:35 | 41.21721 | 18.33131 | 38035 ft | 387 kts | 327° |
| 2026-04-30 14:35 | 41.24102 | 18.31450 | 38045 ft | 387 kts | 327° |
| 2026-04-30 14:36 | 41.28864 | 18.28096 | 38035 ft | 388 kts | 327° |
| 2026-04-30 14:36 | 41.33615 | 18.24749 | 38038 ft | 388 kts | 327° |
| 2026-04-30 14:37 | 41.38370 | 18.21393 | 38040 ft | 388 kts | 327° |
| 2026-04-30 14:37 | 41.43143 | 18.18020 | 38068 ft | 388 kts | 327° |
| 2026-04-30 14:38 | 41.47922 | 18.14643 | 38053 ft | 388 kts | 327° |
| 2026-04-30 14:38 | 41.52537 | 18.10995 | 38067 ft | 385 kts | 322° |
| 2026-04-30 14:39 | 41.57010 | 18.07053 | 38076 ft | 386 kts | 322° |
| 2026-04-30 14:39 | 41.61473 | 18.03093 | 38056 ft | 386 kts | 321° |
| 2026-04-30 14:40 | 41.68153 | 17.97151 | 38053 ft | 387 kts | 321° |
| 2026-04-30 14:40 | 41.72648 | 17.93141 | 38067 ft | 387 kts | 322° |
| 2026-04-30 14:41 | 41.77116 | 17.89149 | 38064 ft | 387 kts | 321° |
| 2026-04-30 14:41 | 41.81589 | 17.85141 | 38072 ft | 387 kts | 321° |
| 2026-04-30 14:42 | 41.86061 | 17.81130 | 38077 ft | 387 kts | 322° |
| 2026-04-30 14:42 | 41.90477 | 17.77068 | 38069 ft | 387 kts | 319° |
| 2026-04-30 14:43 | 41.94612 | 17.72487 | 38067 ft | 384 kts | 314° |
| 2026-04-30 14:43 | 41.98516 | 17.67617 | 38090 ft | 383 kts | 313° |
| 2026-04-30 14:44 | 42.02419 | 17.62707 | 38088 ft | 383 kts | 313° |
| 2026-04-30 14:44 | 42.06325 | 17.57787 | 38103 ft | 384 kts | 313° |
| 2026-04-30 14:45 | 42.10184 | 17.52915 | 38095 ft | 383 kts | 314° |
| 2026-04-30 14:45 | 42.14101 | 17.47994 | 38094 ft | 384 kts | 314° |
| 2026-04-30 14:46 | 42.17983 | 17.43100 | 38088 ft | 384 kts | 313° |
| 2026-04-30 14:46 | 42.21907 | 17.38127 | 38113 ft | 385 kts | 314° |
| 2026-04-30 14:47 | 42.25810 | 17.33159 | 38108 ft | 385 kts | 313° |
| 2026-04-30 14:47 | 42.29695 | 17.28189 | 38108 ft | 385 kts | 313° |
| 2026-04-30 14:48 | 42.33583 | 17.23215 | 38110 ft | 386 kts | 313° |
| 2026-04-30 14:48 | 42.37461 | 17.18251 | 38102 ft | 387 kts | 313° |
| 2026-04-30 14:49 | 42.41382 | 17.13226 | 38117 ft | 387 kts | 313° |
| 2026-04-30 14:49 | 42.45293 | 17.08207 | 38110 ft | 387 kts | 314° |
| 2026-04-30 14:50 | 42.51134 | 17.00690 | 38110 ft | 386 kts | 314° |
| 2026-04-30 14:51 | 42.56975 | 16.93151 | 38127 ft | 388 kts | 314° |
| 2026-04-30 14:52 | 42.62830 | 16.85566 | 38123 ft | 388 kts | 314° |
| 2026-04-30 14:52 | 42.68785 | 16.78151 | 38125 ft | 389 kts | 316° |
| 2026-04-30 14:53 | 42.74874 | 16.70889 | 38115 ft | 389 kts | 316° |
| 2026-04-30 14:54 | 42.83009 | 16.61126 | 38128 ft | 391 kts | 316° |
| 2026-04-30 14:55 | 42.89131 | 16.53745 | 38119 ft | 393 kts | 316° |
| 2026-04-30 14:56 | 42.97310 | 16.43859 | 38128 ft | 393 kts | 316° |
| 2026-04-30 14:57 | 43.03448 | 16.36411 | 38137 ft | 394 kts | 316° |
| 2026-04-30 14:58 | 43.11623 | 16.26431 | 38149 ft | 396 kts | 316° |
| 2026-04-30 14:58 | 43.17789 | 16.18934 | 38141 ft | 395 kts | 316° |
| 2026-04-30 15:00 | 43.28062 | 16.06345 | 38169 ft | 397 kts | 316° |
| 2026-04-30 15:01 | 43.36254 | 15.96259 | 38164 ft | 398 kts | 316° |
| 2026-04-30 15:01 | 43.42409 | 15.88643 | 38166 ft | 398 kts | 316° |
| 2026-04-30 15:02 | 43.46530 | 15.83528 | 38157 ft | 397 kts | 317° |
| 2026-04-30 15:03 | 43.56510 | 15.70387 | 38174 ft | 398 kts | 313° |
| 2026-04-30 15:04 | 43.66175 | 15.56630 | 38182 ft | 399 kts | 313° |
| 2026-04-30 15:06 | 43.75798 | 15.42858 | 38186 ft | 400 kts | 313° |
| 2026-04-30 15:07 | 43.83508 | 15.31756 | 38187 ft | 401 kts | 313° |
| 2026-04-30 15:08 | 43.91212 | 15.20600 | 38191 ft | 402 kts | 313° |
| 2026-04-30 15:09 | 44.01337 | 15.07221 | 38199 ft | 403 kts | 316° |
| 2026-04-30 15:10 | 44.09547 | 14.96675 | 38215 ft | 403 kts | 316° |
| 2026-04-30 15:11 | 44.21839 | 14.80847 | 38207 ft | 402 kts | 317° |
| 2026-04-30 15:13 | 44.32025 | 14.67610 | 38213 ft | 402 kts | 317° |
| 2026-04-30 15:14 | 44.46299 | 14.48943 | 38219 ft | 402 kts | 317° |
| 2026-04-30 15:17 | 44.64614 | 14.24744 | 38228 ft | 403 kts | 317° |
| 2026-04-30 15:19 | 44.80851 | 14.03120 | 38232 ft | 402 kts | 317° |